Latest Coastal Weather Observations for Shark Bay Airport

IDW60701

Issued at 4:15 am WST Thursday 24 July 2014 (issued every 10 minutes, with the page automatically refreshed every 10 minutes)

About coastal observations | Map of coastal stations | Coastal observations for WA | Marine services | Other Formats
Station Details ID: 006105 Name: SHARK BAY AIRPORT Lat: -25.89 Lon: 113.58 Height: 33.8 m
Data from the previous 72 hours. | See also: Recent months for locations in Western Australia
Date/Time
WST
Temp

°C
Wind Pressure Rain
since 9am
mm
Weather Cloud Vis
km
Sea
Height
m
Swell
Dir
 
Speed
knots
Gust
knots
hPa Trend Height
m
Period
s
Dir
24/04:00am 10.2 SE 7 9 1022.3 - 0.0 - - - - - - -
24/03:30am 10.2 SSE 5 6 1022.3 - 0.0 - - - - - - -
24/03:00am 11.2 SSE 5 5 1022.4 - 0.0 - - - - - - -
24/02:30am 12.1 S 6 7 1022.7 - 0.0 - - - - - - -
24/02:00am 11.9 S 7 8 1022.9 - 0.0 - - - - - - -
24/01:30am 11.2 S 6 7 1023.1 - 0.0 - - - - - - -
24/01:00am 10.9 ESE 4 6 1022.9 - 0.0 - - - - - - -
24/12:30am 12.0 SSE 5 7 1023.1 - 0.0 - - - - - - -
24/12:00am 10.8 S 3 5 1023.2 - 0.0 - - - - - - -
 
Date/Time
WST
Temp

°C
Wind Pressure Rain
since 9am
mm
Weather Cloud Vis
km
Sea
Height
m
Swell
Dir
 
Speed
knots
Gust
knots
hPa Trend Height
m
Period
s
Dir
23/11:30pm 11.0 SE 4 5 1023.4 - 0.0 - - - - - - -
23/11:00pm 12.8 S 7 8 1023.4 - 0.0 - - - - - - -
23/10:30pm 13.7 S 7 9 1023.4 - 0.0 - - - - - - -
23/10:00pm 14.1 S 8 9 1023.3 - 0.0 - - - - - - -
23/09:30pm 14.2 SSW 7 8 1023.4 - 0.0 - - - - - - -
23/09:00pm 14.6 SSW 7 9 1023.2 - 0.0 - - - - - - -
23/08:30pm 14.9 S 10 11 1023.0 - 0.0 - - - - - - -
23/08:00pm 14.2 S 8 9 1022.6 - 0.0 - - - - - - -
23/07:30pm 14.6 S 8 10 1022.3 - 0.0 - - - - - - -
23/07:00pm 14.7 S 7 9 1022.3 - 0.0 - - - - - - -
23/06:30pm 15.2 S 6 8 1022.1 - 0.0 - - - - - - -
23/06:00pm 16.5 S 6 8 1021.9 - 0.0 - - - - - - -
23/05:30pm 17.9 S 8 10 1021.9 - 0.0 - - - - - - -
23/05:00pm 18.6 SSW 8 11 1021.8 - 0.0 - - - - - - -
23/04:30pm 19.0 SSW 9 12 1021.7 - 0.0 - - - - - - -
23/04:00pm 19.7 SSW 9 12 1021.5 - 0.0 - - - - - - -
23/03:30pm 19.7 SSW 10 13 1021.3 - 0.0 - - - - - - -
23/03:00pm 19.9 SW 11 13 1021.3 - 0.0 - - - - - - -
23/02:30pm 19.8 SW 12 16 1021.5 - 0.0 - - - - - - -
23/02:00pm 20.8 SW 12 17 1021.6 - 0.0 - - - - - - -
23/01:30pm 20.2 S 10 17 1021.8 - 0.0 - - - - - - -
23/01:00pm 19.5 S 8 13 1022.2 - 0.0 - - - - - - -
23/12:30pm 19.9 S 7 14 1022.7 - 0.0 - - - - - - -
23/12:00pm 19.5 SE 7 11 1023.2 - 0.0 - - - - - - -
23/11:30am 19.7 E 6 10 1023.6 - 0.0 - - - - - - -
23/11:00am 19.7 ESE 8 13 1023.9 - 0.0 - - - - - - -
23/10:30am 18.5 ESE 8 12 1024.3 - 0.0 - - - - - - -
23/10:00am 18.1 SSE 6 7 1024.5 - 0.0 - - - - - - -
23/09:30am 17.4 E 11 14 1024.8 - 0.0 - - - - - - -
23/09:00am 16.4 E 10 13 1024.6 - 0.2 - - - - - - -
23/08:30am 15.9 E 9 12 1024.2 - 0.2 - - - - - - -
23/08:00am 14.5 E 7 8 1024.2 - 0.2 - - - - - - -
23/07:30am 13.9 E 6 7 1023.9 - 0.2 - - - - - - -
23/07:00am 13.8 E 5 6 1023.3 - 0.2 - - - - - - -
23/06:30am 14.0 ESE 5 6 1023.2 - 0.2 - - - - - - -
23/06:00am 14.3 SE 6 7 1022.5 - 0.2 - - - - - - -
23/05:30am 14.4 ESE 6 7 1022.4 - 0.2 - - - - - - -
23/05:00am 14.6 ESE 7 9 1022.5 - 0.2 - - - - - - -
23/04:30am 14.6 ESE 6 8 1022.5 - 0.2 - - - - - - -
23/04:00am 14.8 SE 6 8 1022.7 - 0.2 - - - - - - -
23/03:30am 14.4 E 5 7 1022.7 - 0.2 - - - - - - -
23/03:00am 14.4 E 4 5 1022.8 - 0.2 - - - - - - -
23/02:30am 14.4 ESE 5 6 1022.6 - 0.2 - - - - - - -
23/02:00am 14.8 SE 5 7 1022.5 - 0.2 - - - - - - -
23/01:30am 14.7 SE 6 8 1022.6 - 0.2 - - - - - - -
23/01:00am 14.7 SE 5 7 1022.6 - 0.2 - - - - - - -
23/12:30am 14.4 SSE 5 6 1022.4 - 0.2 - - - - - - -
23/12:00am 14.3 SSE 5 7 1022.5 - 0.2 - - - - - - -
 
Date/Time
WST
Temp

°C
Wind Pressure Rain
since 9am
mm
Weather Cloud Vis
km
Sea
Height
m
Swell
Dir
 
Speed
knots
Gust
knots
hPa Trend Height
m
Period
s
Dir
22/11:30pm 14.3 S 6 7 1022.5 - 0.2 - - - - - - -
22/11:00pm 13.8 SSE 7 8 1022.4 - 0.2 - - - - - - -
22/10:30pm 13.6 SSE 5 6 1022.3 - 0.2 - - - - - - -
22/10:00pm 13.5 S 5 6 1022.4 - 0.2 - - - - - - -
22/09:30pm 14.0 S 6 6 1022.3 - 0.2 - - - - - - -
22/09:00pm 14.9 S 6 8 1022.3 - 0.2 - - - - - - -
22/08:30pm 15.1 S 10 12 1022.3 - 0.2 - - - - - - -
22/08:00pm 15.2 S 9 12 1022.3 - 0.2 - - - - - - -
22/07:30pm 15.3 S 9 12 1022.1 - 0.2 - - - - - - -
22/07:00pm 15.8 S 9 12 1022.0 - 0.2 - - - - - - -
22/06:30pm 16.6 S 8 11 1021.4 - 0.2 - - - - - - -
22/06:00pm 16.9 S 13 17 1021.3 - 0.2 - - - - - - -
22/05:30pm 17.5 SSW 12 18 1021.0 - 0.2 - - - - - - -
22/05:00pm 18.9 SSW 12 16 1020.7 - 0.2 - - - - - - -
22/04:30pm 19.6 SSW 11 15 1020.6 - 0.2 - - - - - - -
22/04:00pm 19.6 SSW 14 19 1020.7 - 0.2 - - - - - - -
22/03:30pm 19.7 SSW 13 16 1020.5 - 0.2 - - - - - - -
22/03:00pm 19.4 SSW 13 18 1020.5 - 0.2 - - - - - - -
22/02:30pm 20.4 SW 11 15 1020.5 - 0.2 - - - - - - -
22/02:00pm 20.2 SSW 12 18 1020.6 - 0.2 - - - - - - -
22/01:30pm 20.2 SSW 14 18 1020.7 - 0.2 - - - - - - -
22/01:00pm 20.4 SSW 13 19 1021.1 - 0.2 - - - - - - -
22/12:30pm 19.5 SSW 15 20 1021.3 - 0.2 - - - - - - -
22/12:00pm 20.1 SSW 13 18 1021.4 - 0.0 - - - - - - -
22/11:30am 19.9 SSW 13 18 1021.6 - 0.0 - - - - - - -
22/11:00am 19.8 SSW 12 16 1021.9 - 0.0 - - - - - - -
22/10:30am 19.0 SSW 11 15 1021.9 - 0.0 - - - - - - -
22/10:00am 18.4 SSW 9 13 1021.7 - 0.0 - - - - - - -
22/09:30am 17.7 SSW 8 10 1021.4 - 0.0 - - - - - - -
22/09:00am 16.3 SSW 6 8 1021.1 - 4.4 - - - - - - -
22/08:30am 13.8 S 3 5 1021.0 - 4.4 - - - - - - -
22/08:00am 12.2 SSE 1 3 1020.5 - 4.4 - - - - - - -
22/07:30am 11.0 SSE 5 5 1020.1 - 4.4 - - - - - - -
22/07:00am 11.3 S 2 4 1019.6 - 4.4 - - - - - - -
22/06:30am 11.3 S 4 5 1019.2 - 4.4 - - - - - - -
22/06:00am 12.3 S 8 9 1019.1 - 4.4 - - - - - - -
22/05:30am 11.0 SSE 5 6 1018.9 - 4.4 - - - - - - -
22/05:00am 10.1 SSE 6 8 1018.8 - 4.4 - - - - - - -
22/04:30am 11.6 S 5 6 1018.5 - 4.4 - - - - - - -
22/04:00am 11.5 SSE 5 6 1018.4 - 4.4 - - - - - - -
22/03:30am 11.4 S 5 6 1018.4 - 4.4 - - - - - - -
22/03:00am 12.0 S 6 7 1018.2 - 4.4 - - - - - - -
22/02:30am 10.2 SSE 3 3 1018.3 - 4.4 - - - - - - -
22/02:00am 11.2 CALM 0 0 1018.2 - 4.4 - - - - - - -
22/01:30am 11.5 CALM 0 0 1018.3 - 4.2 - - - - - - -
22/01:00am 12.2 CALM 0 0 1018.2 - 4.2 - - - - - - -
22/12:30am 12.6 NNE 1 4 1018.1 - 4.2 - - - - - - -
22/12:00am 12.6 NE 5 5 1018.0 - 4.0 - - - - - - -
 
Date/Time
WST
Temp

°C
Wind Pressure Rain
since 9am
mm
Weather Cloud Vis
km
Sea
Height
m
Swell
Dir
 
Speed
knots
Gust
knots
hPa Trend Height
m
Period
s
Dir
21/11:30pm 13.1 NNE 6 6 1018.2 - 4.0 - - - - - - -
21/11:00pm 13.5 NNE 6 7 1018.6 - 4.0 - - - - - - -
21/10:30pm 14.0 NNE 4 5 1018.9 - 4.0 - - - - - - -
21/10:00pm 14.1 E 5 6 1018.7 - 4.0 - - - - - - -
21/09:30pm 14.4 NE 3 4 1018.7 - 3.6 - - - - - - -
21/09:00pm 14.3 E 3 4 1018.4 - 3.6 - - - - - - -
21/08:30pm 14.6 ESE 3 4 1018.2 - 3.6 - - - - - - -
21/08:00pm 15.0 ESE 3 4 1018.2 - 3.6 - - - - - - -
21/07:30pm 14.8 SSW 5 9 1018.2 - 3.6 - - - - - - -
21/07:00pm 14.8 W 16 22 1018.2 - 2.4 - - - - - - -
21/06:53pm 15.4 W 15 20 1018.1 - 0.4 - - - - - - -
21/06:30pm 16.9 NNW 5 6 1017.3 - 0.0 - - - - - - -
21/06:00pm 17.1 NW 5 7 1017.0 - 0.0 - - - - - - -
21/05:30pm 17.5 W 6 8 1016.9 - 0.0 - - - - - - -
21/05:00pm 19.0 W 6 8 1016.7 - 0.0 - - - - - - -
21/04:30pm 20.0 WNW 6 9 1016.6 - 0.0 - - - - - - -
21/04:00pm 20.2 W 5 8 1016.7 - 0.0 - - - - - - -
21/03:30pm 20.2 W 8 10 1016.8 - 0.0 - - - - - - -
21/03:00pm 19.8 W 9 13 1016.8 - 0.0 - - - - - - -
21/02:30pm 20.8 W 9 12 1016.9 - 0.0 - - - - - - -
21/02:00pm 21.1 WSW 9 15 1017.1 - 0.0 - - - - - - -
21/01:30pm 22.3 W 8 12 1017.2 - 0.0 - - - - - - -
21/01:00pm 21.1 NW 6 10 1017.5 - 0.0 - - - - - - -
21/12:30pm 19.9 N 6 10 1018.3 - 0.0 - - - - - - -
21/12:00pm 20.1 N 4 8 1019.0 - 0.0 - - - - - - -
21/11:30am 19.6 N 8 13 1019.6 - 0.0 - - - - - - -
21/11:00am 19.7 NE 5 11 1020.0 - 0.0 - - - - - - -
21/10:30am 19.5 NE 7 10 1020.3 - 0.0 - - - - - - -
21/10:00am 18.9 ENE 8 11 1020.3 - 0.0 - - - - - - -
21/09:30am 18.5 E 7 11 1020.4 - 0.0 - - - - - - -
21/09:00am 17.0 ENE 7 9 1020.2 - 0.2 - - - - - - -
21/08:30am 14.6 NE 5 7 1020.1 - 0.2 - - - - - - -
21/08:00am 11.9 ENE 6 8 1019.9 - 0.2 - - - - - - -
21/07:30am 11.2 ENE 4 5 1019.9 - 0.2 - - - - - - -
21/07:00am 10.8 NE 4 5 1019.5 - 0.2 - - - - - - -
21/06:30am 10.6 ENE 5 5 1019.3 - 0.2 - - - - - - -
21/06:00am 10.4 ENE 4 5 1019.2 - 0.2 - - - - - - -
21/05:30am 10.3 NE 4 5 1019.2 - 0.2 - - - - - - -
21/05:00am 9.9 E 4 5 1019.1 - 0.2 - - - - - - -
21/04:30am 10.5 E 4 4 1019.1 - 0.2 - - - - - - -

Other Formats:

Comma delimited format used in spreadsheet applications
http://www.bom.gov.au/fwo/IDW60701/IDW60701.95402.axf

JavaScript Object Notation format (JSON) in row-major order
http://www.bom.gov.au/fwo/IDW60701/IDW60701.95402.json